KCEF

Westover ARB / Metropolitan Airport

Springfield/Chicopee, Massachusetts, USA
METAR KCEF 230856Z AUTO 19005KT 7SM OVC003 13/12 A2988 RMK AO2 SLP124 T01280123 55009
Observed Flight Rules
May-23 @ 08:56 UTC (13 minutes ago) Instrument Flight Rules
Wind Visibility Clouds
190° at 5 knots 7 miles
  • Overcast at 300' AGL
Temperatures Readings
Current 13°C / 55°F
Dewpoint 12°C / 54°F
Humidity 94%
Altimeter 29.88" Hg
Pressure 1012.4 hPa
Elevation 75
METAR KCEF 230856Z AUTO 19005KT 7SM OVC003 13/12 A2988 RMK AO2 SLP124 T01280123 55009
Observed Flight Rules
May-23 @ 08:56 UTC
(13 minutes ago)
LIFR
Wind Visibility
190° at 5 knots 7 miles
Clouds
  • Overcast at 300' AGL
Temperature Dewpoint
13°C / 55°F 12°C / 54°F
Humidity Altimeter Pressure
94% 29.88" Hg 1012.4 hPa